Time;durP1;ratioP1;P1;durP2;ratioP2;P2;SDS_P1;SDS_P2;PMS_P1;PMS_P2;Temp;Humidity;BMP_temperature;BMP_pressure;BME280_temperature;BME280_humidity;BME280_pressure;Samples;Min_cycle;Max_cycle;Signal;HPM_P1;HPM_P2
2024/04/23 00:00:31;;;;;;;22.70;13.43;;;;;;;;;;5383085;26;20006;-58
2024/04/23 00:02:56;;;;;;;23.33;13.25;;;;;;;;;;5352041;26;19996;-56
2024/04/23 00:05:23;;;;;;;24.92;13.30;;;;;;;;;;5382861;26;20057;-57
2024/04/23 00:07:48;;;;;;;23.42;12.40;;;;;;;;;;5382784;26;20004;-57
2024/04/23 00:10:14;;;;;;;19.30;12.10;;;;;;;;;;5382955;26;20506;-56
2024/04/23 00:12:39;;;;;;;21.58;12.25;;;;;;;;;;5382947;26;20435;-56
2024/04/23 00:15:05;;;;;;;20.35;11.82;;;;;;;;;;5351741;26;19996;-56
2024/04/23 00:17:30;;;;;;;20.27;11.90;;;;;;;;;;5382745;26;20015;-56
2024/04/23 00:19:55;;;;;;;18.67;11.00;;;;;;;;;;5382883;26;20326;-56
2024/04/23 00:22:21;;;;;;;19.67;10.63;;;;;;;;;;5382804;26;20004;-56
2024/04/23 00:24:46;;;;;;;17.70;10.07;;;;;;;;;;5382915;26;20000;-56
2024/04/23 00:27:12;;;;;;;19.13;11.00;;;;;;;;;;5382678;26;19992;-56
2024/04/23 00:29:37;;;;;;;17.73;11.15;;;;;;;;;;5382533;26;20000;-56
2024/04/23 00:32:02;;;;;;;22.55;12.13;;;;;;;;;;5382665;26;20000;-56
2024/04/23 00:38:03;;;;;;;20.33;11.80;;;;;;;;;;5381944;26;20449;-56
2024/04/23 00:40:29;;;;;;;32.45;13.57;;;;;;;;;;5382395;26;20000;-56
2024/04/23 00:42:57;;;;;;;44.38;16.55;;;;;;;;;;5382766;26;20008;-56
2024/04/23 00:45:28;;;;;;;45.92;16.55;;;;;;;;;;5382477;26;20015;-56
2024/04/23 00:47:54;;;;;;;46.90;16.67;;;;;;;;;;5382472;26;20000;-56
2024/04/23 00:50:20;;;;;;;39.88;16.27;;;;;;;;;;5382657;26;20423;-56
2024/04/23 00:52:45;;;;;;;33.58;15.05;;;;;;;;;;5382843;26;19997;-56
2024/04/23 00:55:11;;;;;;;31.92;14.63;;;;;;;;;;5382572;26;20321;-57
2024/04/23 00:57:37;;;;;;;31.85;13.95;;;;;;;;;;5382627;26;20336;-56
2024/04/23 01:00:03;;;;;;;27.08;12.80;;;;;;;;;;5382568;26;19996;-57
2024/04/23 01:02:29;;;;;;;27.83;13.23;;;;;;;;;;5382430;26;20316;-56
2024/04/23 01:04:54;;;;;;;26.33;13.52;;;;;;;;;;5382028;26;20015;-56
2024/04/23 01:07:19;;;;;;;19.80;11.55;;;;;;;;;;5382207;26;20405;-56
2024/04/23 01:09:45;;;;;;;22.73;13.10;;;;;;;;;;5385151;26;20000;-56
2024/04/23 01:12:10;;;;;;;22.10;12.13;;;;;;;;;;5385626;26;20070;-56
2024/04/23 01:14:37;;;;;;;21.40;12.50;;;;;;;;;;5383403;26;19993;-55
2024/04/23 01:17:03;;;;;;;21.48;12.25;;;;;;;;;;5384826;26;20330;-56
2024/04/23 01:19:55;;;;;;;25.15;12.98;;;;;;;;;;5385111;26;20000;-56
2024/04/23 01:22:23;;;;;;;23.50;12.30;;;;;;;;;;5381657;26;20004;-55
2024/04/23 01:24:55;;;;;;;20.98;11.85;;;;;;;;;;5385252;26;20448;-55
2024/04/23 01:27:24;;;;;;;22.10;11.80;;;;;;;;;;5354129;26;20020;-55
2024/04/23 01:29:51;;;;;;;19.40;11.55;;;;;;;;;;5385279;26;20011;-55
2024/04/23 01:32:17;;;;;;;19.38;11.40;;;;;;;;;;5384907;26;20000;-56
2024/04/23 01:34:43;;;;;;;20.58;11.07;;;;;;;;;;5353955;26;20007;-56
2024/04/23 01:37:09;;;;;;;20.67;11.55;;;;;;;;;;5325345;26;19992;-55
2024/04/23 01:39:35;;;;;;;17.65;11.75;;;;;;;;;;5385097;26;20103;-55
2024/04/23 01:42:01;;;;;;;23.42;12.80;;;;;;;;;;5353986;26;20011;-55
2024/04/23 01:44:27;;;;;;;19.33;11.95;;;;;;;;;;5385320;26;20429;-55
2024/04/23 01:46:52;;;;;;;21.27;12.20;;;;;;;;;;5385305;26;20004;-56
2024/04/23 01:49:18;;;;;;;18.85;10.93;;;;;;;;;;5385052;26;20431;-56
2024/04/23 01:51:44;;;;;;;22.23;11.73;;;;;;;;;;5385337;26;20265;-57
2024/04/23 01:54:09;;;;;;;20.70;11.88;;;;;;;;;;5354165;26;20000;-56
2024/04/23 01:56:35;;;;;;;21.20;11.52;;;;;;;;;;5385165;26;20430;-56
2024/04/23 01:59:00;;;;;;;18.10;11.23;;;;;;;;;;5385264;26;20349;-56
2024/04/23 02:01:28;;;;;;;19.02;11.45;;;;;;;;;;5384957;26;19999;-56
2024/04/23 02:03:54;;;;;;;17.90;11.45;;;;;;;;;;5354032;26;20431;-56
2024/04/23 02:06:19;;;;;;;22.02;11.70;;;;;;;;;;5385034;26;20003;-56
2024/04/23 02:08:45;;;;;;;19.30;11.60;;;;;;;;;;5384995;26;19996;-56
2024/04/23 02:11:11;;;;;;;16.02;11.32;;;;;;;;;;5384981;26;20000;-56
2024/04/23 02:13:36;;;;;;;17.25;11.00;;;;;;;;;;5384855;26;20032;-56
2024/04/23 02:16:02;;;;;;;16.85;10.93;;;;;;;;;;5384699;26;20012;-56
2024/04/23 02:18:27;;;;;;;15.32;10.35;;;;;;;;;;5353438;26;20312;-56
2024/04/23 02:20:53;;;;;;;14.90;9.73;;;;;;;;;;5352681;26;20343;-56
2024/04/23 02:23:18;;;;;;;17.35;10.70;;;;;;;;;;5353676;26;19996;-56
2024/04/23 02:25:43;;;;;;;16.77;10.77;;;;;;;;;;5384426;26;20003;-56
2024/04/23 02:28:09;;;;;;;16.45;10.20;;;;;;;;;;5353615;26;19996;-55
2024/04/23 02:30:34;;;;;;;16.02;10.68;;;;;;;;;;5384513;26;19996;-56
2024/04/23 02:33:00;;;;;;;19.95;10.70;;;;;;;;;;5384442;26;20000;-55
2024/04/23 02:35:25;;;;;;;14.70;10.43;;;;;;;;;;5353217;26;20041;-56
2024/04/23 02:37:51;;;;;;;15.38;10.48;;;;;;;;;;5384211;26;20000;-56
2024/04/23 02:40:16;;;;;;;18.67;10.95;;;;;;;;;;5384225;26;20001;-56
2024/04/23 02:42:41;;;;;;;17.52;10.80;;;;;;;;;;5384324;26;20011;-56
2024/04/23 02:45:08;;;;;;;17.58;11.38;;;;;;;;;;5353669;26;20012;-55
2024/04/23 02:47:33;;;;;;;17.10;12.05;;;;;;;;;;5384458;26;20000;-56
2024/04/23 02:49:59;;;;;;;15.70;10.93;;;;;;;;;;5384442;26;20073;-55
2024/04/23 02:52:25;;;;;;;17.35;10.95;;;;;;;;;;5384389;26;20402;-55
2024/04/23 02:54:50;;;;;;;17.42;11.15;;;;;;;;;;5353517;26;20000;-56
2024/04/23 02:57:15;;;;;;;18.05;11.07;;;;;;;;;;5383750;26;20004;-56
2024/04/23 02:59:41;;;;;;;17.05;10.18;;;;;;;;;;5383971;26;19992;-55
2024/04/23 03:02:08;;;;;;;17.40;10.45;;;;;;;;;;5353046;26;20011;-56
2024/04/23 03:04:33;;;;;;;17.38;10.25;;;;;;;;;;5384282;26;20004;-55
2024/04/23 03:06:59;;;;;;;14.20;10.05;;;;;;;;;;5383979;26;20000;-55
2024/04/23 03:09:25;;;;;;;15.45;10.07;;;;;;;;;;5383940;26;19996;-56
2024/04/23 03:11:54;;;;;;;16.60;11.10;;;;;;;;;;5352731;26;19996;-55
2024/04/23 03:14:19;;;;;;;15.80;11.25;;;;;;;;;;5383797;26;20010;-55
2024/04/23 03:16:45;;;;;;;17.35;10.90;;;;;;;;;;5383765;26;19996;-55
2024/04/23 03:19:11;;;;;;;17.73;11.35;;;;;;;;;;5383679;26;20020;-55
2024/04/23 03:21:55;;;;;;;18.75;11.60;;;;;;;;;;5383558;26;20065;-55
2024/04/23 03:24:21;;;;;;;16.60;11.13;;;;;;;;;;5383801;26;20065;-56
2024/04/23 03:26:47;;;;;;;16.45;11.00;;;;;;;;;;5383604;26;20541;-55
2024/04/23 03:29:12;;;;;;;17.02;11.50;;;;;;;;;;5352665;26;20000;-55
2024/04/23 03:31:38;;;;;;;16.17;11.52;;;;;;;;;;5383357;26;20008;-55
2024/04/23 03:34:03;;;;;;;17.30;11.25;;;;;;;;;;5383455;26;20007;-55
2024/04/23 03:36:28;;;;;;;17.55;12.00;;;;;;;;;;5352362;26;20024;-55
2024/04/23 03:38:54;;;;;;;17.00;11.75;;;;;;;;;;5383493;26;19992;-55
2024/04/23 03:41:19;;;;;;;19.90;12.27;;;;;;;;;;5383366;26;20024;-55
2024/04/23 03:43:44;;;;;;;21.50;11.88;;;;;;;;;;5352349;26;20011;-55
2024/04/23 03:46:10;;;;;;;18.33;11.75;;;;;;;;;;5352411;26;20000;-55
2024/04/23 03:48:35;;;;;;;20.88;12.05;;;;;;;;;;5383532;26;20003;-55
2024/04/23 03:51:01;;;;;;;14.48;11.05;;;;;;;;;;5383324;26;19992;-56
2024/04/23 03:53:26;;;;;;;19.85;12.38;;;;;;;;;;5383212;26;19992;-56
2024/04/23 03:55:51;;;;;;;23.27;14.07;;;;;;;;;;5351939;26;20015;-56
2024/04/23 03:58:17;;;;;;;20.40;13.18;;;;;;;;;;5383139;26;20003;-56
2024/04/23 04:00:42;;;;;;;21.30;13.68;;;;;;;;;;5383127;26;20004;-56
2024/04/23 04:06:04;;;;;;;25.45;15.18;;;;;;;;;;5382753;26;20000;-56
2024/04/23 04:08:30;;;;;;;24.67;15.40;;;;;;;;;;5382143;26;20035;-55
2024/04/23 04:10:55;;;;;;;26.00;14.85;;;;;;;;;;5381914;26;20007;-55
2024/04/23 04:13:21;;;;;;;17.60;11.50;;;;;;;;;;5381403;26;20557;-56
2024/04/23 04:15:46;;;;;;;19.23;10.98;;;;;;;;;;5381050;26;20070;-57
2024/04/23 04:18:11;;;;;;;25.08;11.38;;;;;;;;;;5381530;26;20000;-56
2024/04/23 04:20:37;;;;;;;23.38;11.50;;;;;;;;;;5350266;26;20004;-56
2024/04/23 04:23:02;;;;;;;23.40;11.63;;;;;;;;;;5381880;26;19992;-56
2024/04/23 04:25:28;;;;;;;23.17;11.38;;;;;;;;;;5382707;26;19996;-56
2024/04/23 04:27:53;;;;;;;18.40;10.00;;;;;;;;;;5351814;26;20007;-56
2024/04/23 04:30:18;;;;;;;19.50;9.82;;;;;;;;;;5351899;26;20007;-56
2024/04/23 04:32:44;;;;;;;17.00;9.40;;;;;;;;;;5382539;26;20004;-57
2024/04/23 04:35:09;;;;;;;18.17;9.45;;;;;;;;;;5382397;26;20040;-58
2024/04/23 04:37:35;;;;;;;14.38;8.13;;;;;;;;;;5382519;26;20008;-57
2024/04/23 04:40:00;;;;;;;15.10;7.88;;;;;;;;;;5382542;26;19996;-57
2024/04/23 04:42:26;;;;;;;11.68;7.60;;;;;;;;;;5383006;26;20007;-57
2024/04/23 04:44:52;;;;;;;10.70;7.28;;;;;;;;;;5329865;26;20004;-57
2024/04/23 04:47:17;;;;;;;11.85;7.18;;;;;;;;;;5389993;26;20065;-57
2024/04/23 04:49:42;;;;;;;10.32;6.72;;;;;;;;;;5358706;26;20012;-57
2024/04/23 04:52:08;;;;;;;8.60;6.70;;;;;;;;;;5329877;26;19992;-57
2024/04/23 04:54:33;;;;;;;9.60;5.88;;;;;;;;;;5390313;26;20000;-58
2024/04/23 04:56:58;;;;;;;7.50;6.70;;;;;;;;;;5389587;26;19992;-57
2024/04/23 04:59:24;;;;;;;7.22;6.03;;;;;;;;;;5389638;26;20027;-58
2024/04/23 05:01:50;;;;;;;8.75;6.40;;;;;;;;;;5389781;26;20007;-57
2024/04/23 05:04:15;;;;;;;7.75;6.75;;;;;;;;;;5389590;26;19992;-58
2024/04/23 05:06:41;;;;;;;8.15;6.03;;;;;;;;;;5389563;26;20003;-58
2024/04/23 05:09:06;;;;;;;9.25;6.78;;;;;;;;;;5389395;26;20003;-57
2024/04/23 05:11:32;;;;;;;11.82;7.47;;;;;;;;;;5358909;26;20000;-58
2024/04/23 05:13:57;;;;;;;9.02;7.65;;;;;;;;;;5389445;26;20006;-57
2024/04/23 05:16:22;;;;;;;11.45;7.47;;;;;;;;;;5389592;26;20066;-57
2024/04/23 05:18:50;;;;;;;11.95;7.18;;;;;;;;;;5389455;26;20011;-57
2024/04/23 05:21:15;;;;;;;11.85;8.00;;;;;;;;;;5389502;26;20338;-57
2024/04/23 05:23:41;;;;;;;11.48;9.32;;;;;;;;;;5387217;26;19992;-57
2024/04/23 05:26:06;;;;;;;8.88;7.25;;;;;;;;;;5387077;26;19992;-57
2024/04/23 05:28:31;;;;;;;10.68;8.00;;;;;;;;;;5386820;26;19992;-57
2024/04/23 05:33:43;;;;;;;11.52;8.25;;;;;;;;;;5386472;26;20000;-57
2024/04/23 05:36:10;;;;;;;9.75;7.40;;;;;;;;;;5386944;26;20003;-57
2024/04/23 05:38:35;;;;;;;10.07;8.00;;;;;;;;;;5386565;26;19992;-57
2024/04/23 05:41:00;;;;;;;10.68;8.18;;;;;;;;;;5388220;26;19992;-57
2024/04/23 05:43:26;;;;;;;11.82;8.00;;;;;;;;;;5389196;26;20449;-57
2024/04/23 05:45:52;;;;;;;12.45;8.75;;;;;;;;;;5389295;26;20004;-57
2024/04/23 05:48:36;;;;;;;9.43;7.40;;;;;;;;;;5389186;26;20040;-57
2024/04/23 05:51:38;;;;;;;10.20;7.50;;;;;;;;;;5389291;26;20004;-57
2024/04/23 05:54:41;;;;;;;9.40;7.28;;;;;;;;;;5387653;26;20007;-57
2024/04/23 05:57:25;;;;;;;8.80;7.13;;;;;;;;;;5385334;26;20417;-57
2024/04/23 05:59:51;;;;;;;33.58;23.23;;;;;;;;;;5385228;26;19992;-57
2024/04/23 06:02:16;;;;;;;26.40;23.45;;;;;;;;;;5385194;26;20002;-57
2024/04/23 06:04:41;;;;;;;25.73;22.77;;;;;;;;;;5385044;26;20012;-57
2024/04/23 06:07:07;;;;;;;94.15;48.60;;;;;;;;;;5385164;26;20000;-57
2024/04/23 06:09:32;;;;;;;64.82;39.75;;;;;;;;;;5385407;26;20000;-57
2024/04/23 06:11:58;;;;;;;167.10;82.20;;;;;;;;;;5384969;26;20011;-57
2024/04/23 06:14:23;;;;;;;164.77;88.57;;;;;;;;;;5353652;26;20445;-57
2024/04/23 06:17:07;;;;;;;114.97;69.40;;;;;;;;;;5325107;26;20000;-57
2024/04/23 06:19:44;;;;;;;18.65;14.55;;;;;;;;;;5384812;26;20028;-57
2024/04/23 06:22:10;;;;;;;40.00;34.97;;;;;;;;;;5353792;26;19996;-57
2024/04/23 06:24:35;;;;;;;89.65;57.95;;;;;;;;;;5384618;26;20000;-57
2024/04/23 06:27:00;;;;;;;20.90;18.67;;;;;;;;;;5384890;26;20008;-57
2024/04/23 06:29:27;;;;;;;12.63;11.30;;;;;;;;;;5384814;26;20070;-57
2024/04/23 06:31:53;;;;;;;12.63;9.25;;;;;;;;;;5384628;26;20442;-57
2024/04/23 06:34:18;;;;;;;16.48;13.23;;;;;;;;;;5384497;26;20003;-57
2024/04/23 06:36:44;;;;;;;14.23;12.73;;;;;;;;;;5384352;26;20007;-57
2024/04/23 06:39:09;;;;;;;15.43;13.60;;;;;;;;;;5384349;26;20338;-57
2024/04/23 06:41:34;;;;;;;10.77;9.05;;;;;;;;;;5384526;26;20404;-57
2024/04/23 06:44:00;;;;;;;9.98;8.32;;;;;;;;;;5353706;26;20000;-63
2024/04/23 06:46:25;;;;;;;19.65;14.05;;;;;;;;;;5409057;21;20012;-62
2024/04/23 06:48:50;;;;;;;15.13;13.50;;;;;;;;;;5381008;21;20009;-62
2024/04/23 06:53:57;;;;;;;14.63;11.60;;;;;;;;;;5426786;21;20352;-65
2024/04/23 06:56:22;;;;;;;11.43;10.00;;;;;;;;;;5349444;26;19993;-65
2024/04/23 06:58:48;;;;;;;12.95;10.15;;;;;;;;;;5349380;26;20041;-65
2024/04/23 07:01:14;;;;;;;10.35;8.20;;;;;;;;;;5349377;26;20008;-65
2024/04/23 07:03:39;;;;;;;8.85;7.15;;;;;;;;;;5349067;26;20001;-60
2024/04/23 07:06:05;;;;;;;9.27;6.47;;;;;;;;;;5348789;26;20015;-60
2024/04/23 07:08:31;;;;;;;10.07;7.47;;;;;;;;;;5349217;26;20000;-60
2024/04/23 07:10:56;;;;;;;8.73;7.15;;;;;;;;;;5349239;26;19999;-59
2024/04/23 07:13:23;;;;;;;9.77;7.38;;;;;;;;;;5349116;26;20001;-59
2024/04/23 07:15:48;;;;;;;9.27;7.70;;;;;;;;;;5349082;26;20001;-60
2024/04/23 07:18:13;;;;;;;13.95;9.02;;;;;;;;;;5349179;26;20012;-60
2024/04/23 07:20:38;;;;;;;10.70;8.07;;;;;;;;;;5348992;26;20000;-60
2024/04/23 07:23:04;;;;;;;9.20;7.35;;;;;;;;;;5349135;26;20070;-60
2024/04/23 07:25:30;;;;;;;9.05;7.28;;;;;;;;;;5349033;26;20012;-60
2024/04/23 07:27:55;;;;;;;13.15;8.57;;;;;;;;;;5349265;26;20428;-59
2024/04/23 07:30:25;;;;;;;13.20;8.38;;;;;;;;;;5349028;26;19997;-59
2024/04/23 07:32:54;;;;;;;9.25;7.53;;;;;;;;;;5348977;26;20001;-60
2024/04/23 07:35:20;;;;;;;32.42;21.98;;;;;;;;;;5348785;26;20012;-60
2024/04/23 07:37:45;;;;;;;117.78;67.53;;;;;;;;;;5348775;26;19997;-59
2024/04/23 07:40:11;;;;;;;104.70;56.35;;;;;;;;;;5289828;26;20003;-60
2024/04/23 07:42:37;;;;;;;115.72;60.80;;;;;;;;;;5348849;26;19993;-59
2024/04/23 07:45:02;;;;;;;253.90;146.00;;;;;;;;;;5348706;26;20011;-59
2024/04/23 07:47:28;;;;;;;229.90;107.57;;;;;;;;;;5318478;26;20000;-59
2024/04/23 07:49:54;;;;;;;114.03;65.80;;;;;;;;;;5348741;26;20004;-59
2024/04/23 07:52:19;;;;;;;28.92;20.23;;;;;;;;;;5348659;26;20071;-60
2024/04/23 07:54:50;;;;;;;14.45;11.88;;;;;;;;;;5362150;26;20089;-60
2024/04/23 07:57:15;;;;;;;9.25;7.97;;;;;;;;;;5383487;26;19996;-60
2024/04/23 07:59:41;;;;;;;10.82;8.30;;;;;;;;;;5383756;26;20000;-60
2024/04/23 08:02:07;;;;;;;11.68;8.50;;;;;;;;;;5352648;26;20011;-59
2024/04/23 08:04:33;;;;;;;11.15;7.72;;;;;;;;;;5352710;26;20000;-60
2024/04/23 08:06:58;;;;;;;15.73;9.35;;;;;;;;;;5383365;26;19993;-60
2024/04/23 08:09:23;;;;;;;17.05;8.63;;;;;;;;;;5383448;26;20318;-59
2024/04/23 08:11:49;;;;;;;10.02;6.85;;;;;;;;;;5352564;26;20010;-60
2024/04/23 08:14:15;;;;;;;11.27;6.90;;;;;;;;;;5383214;26;20011;-60
2024/04/23 08:16:40;;;;;;;11.77;7.70;;;;;;;;;;5383146;26;20419;-59
2024/04/23 08:19:05;;;;;;;10.35;9.13;;;;;;;;;;5382011;26;19992;-60
2024/04/23 08:21:31;;;;;;;10.63;8.13;;;;;;;;;;5382913;26;20354;-60
2024/04/23 08:23:56;;;;;;;10.00;7.55;;;;;;;;;;5383161;26;19993;-60
2024/04/23 08:26:22;;;;;;;9.27;7.50;;;;;;;;;;5383168;26;20004;-59
2024/04/23 08:28:49;;;;;;;9.20;6.90;;;;;;;;;;5351917;26;20007;-60
2024/04/23 08:31:15;;;;;;;12.85;8.45;;;;;;;;;;5382627;26;20534;-60
2024/04/23 08:33:40;;;;;;;13.65;8.73;;;;;;;;;;5382937;26;20001;-59
2024/04/23 08:36:06;;;;;;;18.65;13.95;;;;;;;;;;5382977;26;20446;-60
2024/04/23 08:38:31;;;;;;;9.02;7.72;;;;;;;;;;5382636;26;19999;-60
2024/04/23 08:40:57;;;;;;;7.85;7.03;;;;;;;;;;5382886;26;20000;-60
2024/04/23 08:43:25;;;;;;;9.73;7.55;;;;;;;;;;5382856;26;20010;-60
2024/04/23 08:45:52;;;;;;;8.45;6.60;;;;;;;;;;5351942;26;20008;-60
2024/04/23 08:48:18;;;;;;;9.95;7.00;;;;;;;;;;5351921;26;19997;-59
2024/04/23 08:50:43;;;;;;;9.05;7.32;;;;;;;;;;5382788;26;20000;-60
2024/04/23 08:53:08;;;;;;;7.93;7.10;;;;;;;;;;5382917;26;20000;-60
2024/04/23 08:55:37;;;;;;;9.90;8.18;;;;;;;;;;5382824;26;20065;-60
2024/04/23 08:58:03;;;;;;;9.35;7.47;;;;;;;;;;5351865;26;20032;-60
2024/04/23 09:00:28;;;;;;;8.73;6.75;;;;;;;;;;5382603;26;19996;-60
2024/04/23 09:02:55;;;;;;;10.10;7.72;;;;;;;;;;5351628;26;20000;-60
2024/04/23 09:05:20;;;;;;;13.02;8.70;;;;;;;;;;5382530;26;20438;-60
2024/04/23 09:07:46;;;;;;;17.90;10.27;;;;;;;;;;5382401;26;20015;-59
2024/04/23 09:10:12;;;;;;;29.63;18.48;;;;;;;;;;5382446;26;20001;-60
2024/04/23 09:12:37;;;;;;;7.68;6.55;;;;;;;;;;5382436;26;20401;-60
2024/04/23 09:15:03;;;;;;;7.30;6.35;;;;;;;;;;5351331;26;20043;-60
2024/04/23 09:17:30;;;;;;;9.70;7.72;;;;;;;;;;5382514;26;20411;-60
2024/04/23 09:19:56;;;;;;;9.43;6.43;;;;;;;;;;5351498;26;20000;-60
2024/04/23 09:22:21;;;;;;;8.98;7.93;;;;;;;;;;5382213;26;20003;-60
2024/04/23 09:24:46;;;;;;;10.43;6.75;;;;;;;;;;5382221;26;20434;-59
2024/04/23 09:27:12;;;;;;;18.70;12.48;;;;;;;;;;5382139;26;20004;-60
2024/04/23 09:29:38;;;;;;;9.07;6.63;;;;;;;;;;5383535;26;20020;-59
2024/04/23 09:32:04;;;;;;;7.60;6.22;;;;;;;;;;5385605;26;20065;-60
2024/04/23 09:34:30;;;;;;;7.97;6.43;;;;;;;;;;5385552;26;20000;-60
2024/04/23 09:36:55;;;;;;;9.48;6.15;;;;;;;;;;5385496;26;20435;-60
2024/04/23 09:39:21;;;;;;;7.18;6.28;;;;;;;;;;5385545;26;19993;-59
2024/04/23 09:41:58;;;;;;;5.78;5.07;;;;;;;;;;5385629;26;20000;-59
2024/04/23 09:44:24;;;;;;;7.85;5.75;;;;;;;;;;5385377;26;20004;-60
2024/04/23 09:46:49;;;;;;;10.73;6.57;;;;;;;;;;5385395;26;19996;-60
2024/04/23 09:49:15;;;;;;;6.65;6.03;;;;;;;;;;5385303;26;20324;-60
2024/04/23 09:51:42;;;;;;;5.30;4.63;;;;;;;;;;5385374;26;19996;-60
2024/04/23 09:54:07;;;;;;;8.07;6.53;;;;;;;;;;5385014;26;19993;-60
2024/04/23 09:56:33;;;;;;;7.35;6.28;;;;;;;;;;5385504;26;20000;-59
2024/04/23 09:58:58;;;;;;;8.88;7.97;;;;;;;;;;5385524;26;20008;-60
2024/04/23 10:01:27;;;;;;;8.73;6.97;;;;;;;;;;5354621;26;20012;-60
2024/04/23 10:03:58;;;;;;;6.15;5.55;;;;;;;;;;5385264;26;20070;-60
2024/04/23 10:06:26;;;;;;;7.65;5.28;;;;;;;;;;5385042;26;20008;-60
2024/04/23 10:08:53;;;;;;;10.05;7.55;;;;;;;;;;5385085;26;20000;-60
2024/04/23 10:11:41;;;;;;;10.77;7.95;;;;;;;;;;5385041;26;20000;-60
2024/04/23 10:14:14;;;;;;;8.52;7.57;;;;;;;;;;5374878;26;20020;-60
2024/04/23 10:16:43;;;;;;;9.88;8.77;;;;;;;;;;5384491;26;20012;-60
2024/04/23 10:19:09;;;;;;;14.80;11.27;;;;;;;;;;5384960;26;20074;-60
2024/04/23 10:21:37;;;;;;;10.70;7.72;;;;;;;;;;5384749;26;20000;-60
2024/04/23 10:24:07;;;;;;;8.25;7.20;;;;;;;;;;5354088;26;20072;-60
2024/04/23 10:26:37;;;;;;;7.28;6.38;;;;;;;;;;5384974;26;20468;-60
2024/04/23 10:29:03;;;;;;;9.63;7.75;;;;;;;;;;5384708;26;19996;-60
2024/04/23 10:31:30;;;;;;;13.10;9.43;;;;;;;;;;5384804;26;20006;-60
2024/04/23 10:33:56;;;;;;;8.25;7.35;;;;;;;;;;5384724;26;20004;-60
2024/04/23 10:36:22;;;;;;;9.45;8.50;;;;;;;;;;5384714;26;20000;-60
2024/04/23 10:38:50;;;;;;;14.88;12.18;;;;;;;;;;5384221;26;20015;-59
2024/04/23 10:41:15;;;;;;;31.13;20.00;;;;;;;;;;5353138;26;20333;-60
2024/04/23 10:43:41;;;;;;;14.70;11.70;;;;;;;;;;5384692;26;20000;-60
2024/04/23 10:46:06;;;;;;;8.70;7.53;;;;;;;;;;5384628;26;20422;-60
2024/04/23 10:48:37;;;;;;;8.25;7.43;;;;;;;;;;5384819;26;20431;-60
2024/04/23 10:51:03;;;;;;;8.20;7.07;;;;;;;;;;5384515;26;20028;-60
2024/04/23 10:53:32;;;;;;;10.60;7.90;;;;;;;;;;5384406;26;20000;-60
2024/04/23 10:55:57;;;;;;;8.13;6.30;;;;;;;;;;5384256;26;20043;-60
2024/04/23 10:58:24;;;;;;;9.80;7.40;;;;;;;;;;5385092;26;20012;-60
2024/04/23 11:01:01;;;;;;;6.70;5.13;;;;;;;;;;5353809;26;20074;-60
2024/04/23 11:03:29;;;;;;;38.00;22.10;;;;;;;;;;5353416;26;20007;-60
2024/04/23 11:05:59;;;;;;;54.03;31.48;;;;;;;;;;5354023;26;20000;-66
2024/04/23 11:08:36;;;;;;;13.40;9.77;;;;;;;;;;5383771;26;19996;-65
2024/04/23 11:11:07;;;;;;;8.77;7.63;;;;;;;;;;5352972;26;20421;-65
2024/04/23 11:13:36;;;;;;;9.23;7.38;;;;;;;;;;5384373;26;20016;-65
2024/04/23 11:16:14;;;;;;;8.35;7.47;;;;;;;;;;5353607;26;20000;-66
2024/04/23 11:18:41;;;;;;;8.00;7.20;;;;;;;;;;5384663;26;19997;-66
2024/04/23 11:21:10;;;;;;;7.72;6.88;;;;;;;;;;5382452;26;20003;-66
2024/04/23 11:23:40;;;;;;;9.38;8.48;;;;;;;;;;5351710;26;20381;-60
2024/04/23 11:26:30;;;;;;;7.72;6.97;;;;;;;;;;5384058;26;20381;-60
2024/04/23 11:28:59;;;;;;;6.15;4.95;;;;;;;;;;5383831;26;20431;-60
2024/04/23 11:31:25;;;;;;;7.68;6.65;;;;;;;;;;5324365;26;20020;-60
2024/04/23 11:33:52;;;;;;;12.65;8.30;;;;;;;;;;5383529;26;20328;-60
2024/04/23 11:36:25;;;;;;;6.70;5.97;;;;;;;;;;5384132;26;20073;-60
2024/04/23 11:38:54;;;;;;;7.13;6.45;;;;;;;;;;5352100;26;20007;-60
2024/04/23 11:41:21;;;;;;;17.50;14.43;;;;;;;;;;5383771;26;20529;-60
2024/04/23 11:43:53;;;;;;;11.45;8.63;;;;;;;;;;5354337;26;20438;-60
2024/04/23 11:46:19;;;;;;;11.07;9.07;;;;;;;;;;5383720;26;20011;-60
2024/04/23 11:48:44;;;;;;;11.25;9.82;;;;;;;;;;5383625;26;20012;-60
2024/04/23 11:51:11;;;;;;;11.68;8.77;;;;;;;;;;5383713;26;20008;-60
2024/04/23 11:53:36;;;;;;;12.43;11.13;;;;;;;;;;5381968;26;20347;-60
2024/04/23 11:56:01;;;;;;;9.00;8.10;;;;;;;;;;5383770;26;20012;-60
2024/04/23 11:58:27;;;;;;;9.48;8.45;;;;;;;;;;5383858;26;20001;-60
2024/04/23 12:00:52;;;;;;;12.30;9.40;;;;;;;;;;5352941;26;20423;-60
2024/04/23 12:03:18;;;;;;;12.02;9.18;;;;;;;;;;5383771;26;20008;-60
2024/04/23 12:05:45;;;;;;;10.30;8.52;;;;;;;;;;5383835;26;20000;-60
2024/04/23 12:08:10;;;;;;;10.80;8.18;;;;;;;;;;5383756;26;20065;-60
2024/04/23 12:10:36;;;;;;;9.85;8.75;;;;;;;;;;5383768;26;20439;-60
2024/04/23 12:13:03;;;;;;;9.73;8.07;;;;;;;;;;5383282;26;19992;-60
2024/04/23 12:15:29;;;;;;;11.60;8.55;;;;;;;;;;5383638;26;20078;-60
2024/04/23 12:17:54;;;;;;;13.27;8.80;;;;;;;;;;5383617;26;20008;-60
2024/04/23 12:20:20;;;;;;;14.75;11.82;;;;;;;;;;5383829;26;20430;-60
2024/04/23 12:22:45;;;;;;;11.13;9.82;;;;;;;;;;5383430;26;20326;-60
2024/04/23 12:25:11;;;;;;;9.75;7.68;;;;;;;;;;5383191;26;20042;-60
2024/04/23 12:27:37;;;;;;;14.30;10.25;;;;;;;;;;5383201;26;20011;-60
2024/04/23 12:30:09;;;;;;;10.75;9.75;;;;;;;;;;5352068;26;20000;-60
2024/04/23 12:32:35;;;;;;;10.48;9.38;;;;;;;;;;5382636;26;20077;-60
2024/04/23 12:35:00;;;;;;;10.65;9.55;;;;;;;;;;5382951;26;19992;-60
2024/04/23 12:37:25;;;;;;;11.45;10.27;;;;;;;;;;5383079;26;20304;-60
2024/04/23 12:39:54;;;;;;;9.88;8.88;;;;;;;;;;5383001;26;20007;-60
2024/04/23 12:42:24;;;;;;;8.02;6.80;;;;;;;;;;5382866;26;20465;-60
2024/04/23 12:44:50;;;;;;;12.40;9.25;;;;;;;;;;5382760;26;20335;-60
2024/04/23 12:47:15;;;;;;;10.23;8.75;;;;;;;;;;5382885;26;19996;-60
2024/04/23 12:49:40;;;;;;;10.68;9.63;;;;;;;;;;5382764;26;19992;-60
2024/04/23 12:52:06;;;;;;;10.50;8.45;;;;;;;;;;5382761;26;20023;-59
2024/04/23 12:54:31;;;;;;;11.75;9.57;;;;;;;;;;5382391;26;19988;-59
2024/04/23 12:56:57;;;;;;;12.93;10.70;;;;;;;;;;5382754;26;19997;-59
2024/04/23 12:59:22;;;;;;;10.68;9.00;;;;;;;;;;5382712;26;20004;-59
2024/04/23 13:01:47;;;;;;;9.63;8.65;;;;;;;;;;5382352;26;20012;-59
2024/04/23 13:04:14;;;;;;;12.02;9.18;;;;;;;;;;5383416;26;20015;-59
2024/04/23 13:06:39;;;;;;;12.73;8.45;;;;;;;;;;5385909;26;20008;-59
2024/04/23 13:09:05;;;;;;;8.68;7.57;;;;;;;;;;5355052;26;19996;-59
2024/04/23 13:11:31;;;;;;;8.95;8.05;;;;;;;;;;5384803;26;20011;-59
2024/04/23 13:13:57;;;;;;;9.68;7.78;;;;;;;;;;5383849;26;20002;-59
2024/04/23 13:16:22;;;;;;;7.13;6.47;;;;;;;;;;5384405;26;20439;-58
2024/04/23 13:18:47;;;;;;;12.27;8.27;;;;;;;;;;5381713;26;20003;-59
2024/04/23 13:21:13;;;;;;;9.60;8.05;;;;;;;;;;5353737;26;20431;-59
2024/04/23 13:23:39;;;;;;;8.75;7.85;;;;;;;;;;5385611;26;19996;-59
2024/04/23 13:26:04;;;;;;;9.93;8.98;;;;;;;;;;5385293;26;20073;-60
2024/04/23 13:28:30;;;;;;;9.18;8.18;;;;;;;;;;5385182;26;20004;-59
2024/04/23 13:30:55;;;;;;;9.20;8.20;;;;;;;;;;5385042;26;20574;-59
2024/04/23 13:33:20;;;;;;;9.13;7.97;;;;;;;;;;5385209;26;20008;-60
2024/04/23 13:35:46;;;;;;;9.60;7.30;;;;;;;;;;5384684;26;20081;-59
2024/04/23 13:38:12;;;;;;;6.43;5.72;;;;;;;;;;5384709;26;20477;-59
2024/04/23 13:40:38;;;;;;;9.90;8.52;;;;;;;;;;5384891;26;20008;-59
2024/04/23 13:43:03;;;;;;;8.82;7.95;;;;;;;;;;5384992;26;20010;-59
2024/04/23 13:45:30;;;;;;;7.22;6.53;;;;;;;;;;5383259;26;20023;-60
2024/04/23 13:47:57;;;;;;;6.97;6.28;;;;;;;;;;5381672;26;19992;-59
2024/04/23 13:50:23;;;;;;;6.30;5.65;;;;;;;;;;5382135;26;20091;-60
2024/04/23 13:52:48;;;;;;;7.78;7.00;;;;;;;;;;5382325;26;20004;-60
2024/04/23 13:55:14;;;;;;;8.88;7.97;;;;;;;;;;5382207;26;19988;-60
2024/04/23 13:57:40;;;;;;;9.35;8.10;;;;;;;;;;5350953;26;19996;-59
2024/04/23 14:00:06;;;;;;;8.57;7.70;;;;;;;;;;5382176;26;20006;-59
2024/04/23 14:02:31;;;;;;;7.60;6.63;;;;;;;;;;5383213;26;20000;-57
2024/04/23 14:04:58;;;;;;;8.02;7.22;;;;;;;;;;5384933;26;20000;-58
2024/04/23 14:07:24;;;;;;;9.13;7.63;;;;;;;;;;5384771;26;20079;-58
2024/04/23 14:09:49;;;;;;;12.10;10.18;;;;;;;;;;5384605;26;20000;-57
2024/04/23 14:12:15;;;;;;;7.75;6.80;;;;;;;;;;5385084;26;19996;-58
2024/04/23 14:14:41;;;;;;;9.57;8.35;;;;;;;;;;5384950;26;20418;-58
2024/04/23 14:17:07;;;;;;;10.80;8.80;;;;;;;;;;5383645;26;20015;-57
2024/04/23 14:19:35;;;;;;;9.55;8.55;;;;;;;;;;5353916;26;20307;-58
2024/04/23 14:22:01;;;;;;;9.35;7.57;;;;;;;;;;5385277;26;19997;-58
2024/04/23 14:24:27;;;;;;;10.90;8.23;;;;;;;;;;5385202;26;20350;-57
2024/04/23 14:26:53;;;;;;;10.93;9.45;;;;;;;;;;5384908;26;20431;-57
2024/04/23 14:29:19;;;;;;;14.35;11.55;;;;;;;;;;5384677;26;19996;-57
2024/04/23 14:31:44;;;;;;;10.15;8.30;;;;;;;;;;5384740;26;20001;-57
2024/04/23 14:34:10;;;;;;;8.00;7.25;;;;;;;;;;5384680;26;19999;-58
2024/04/23 14:36:39;;;;;;;8.32;7.43;;;;;;;;;;5384792;26;20314;-58